St. Ansgar, IA

7:23 PM CST on December 22, 2014 (GMT -0600)
IEM | Change Station
CLOSE
Current Station
Personal Weather Station
Location: Toeterville, IA
Elevation: 1174 ft
Nearby Weather Stations
Active Advisory: Special Statement

Elev 1174 ft 43.37 °N, 92.92 °W | Updated 11 days ago

Snow
Snow
34 °F
Feels Like 27 °F
N
11
Wind Variable Wind from ESE
Gusts 15 mph

Today
High -- | Low -- °F
--% Chance of Precip.
Yesterday
High -- | Low -- °F
Precip. -- in
7:41 AM 4:39 PM
New Moon, 1% visible
Pressure 29.55 in
Visibility 7.0 miles
Clouds Overcast 900 ft
Windchill 27 °F
Dew Point 34 °F
Humidity 96%
Rainfall -999.00 in
Snow Depth Not available.
UV 0 out of 12
Pollen .10 out of 12
Air Quality Not available.
Flu Activity Not available.
METAR KAUM 230116Z AUTO 10011KT 7SM OVC009 01/01 A2955 RMK AO2

More Conditions Fewer Conditions

Pressure 29.55 in
Visibility 7.0 miles
Clouds Overcast 900 ft
Windchill 27 °F
Dew Point 34 °F
Humidity 96%
Rainfall -999.00 in
Snow Depth Not available.
UV 0 out of 12
Pollen .10 out of 12
Air Quality Not available.
Flu Activity Not available.
METAR KAUM 230116Z AUTO 10011KT 7SM OVC009 01/01 A2955 RMK AO2

More Conditions Fewer Conditions

Nowcast | as of 5:56 PM CST on December 22, 2014

Look for the light rain and drizzle...or light snow over some of the higher terrain locations...to taper off to patchy drizzle through 8 PM. Rain amounts from 6 PM to 8 PM will mainly be a trace. If driving...remain alert wet roads and the possibility of slippery spots.

×

10-Day Weather Forecast

Almanac

Astronomy

Dec. 22, 2014 Rise Set
Actual Time
Civil Twilight
Nautical Twilight
Astronomical Twilight
Moon
Length of Visible Light
Length of Day
Tomorrow will be .
, % of the Moon is Illuminated

Today's Extremes

State Highs State Lows

Community

WunderPhotos

Upload Photos

1,779,749 photos uploaded!

WunderBlogs® & News

Nearby

Air Quality

  Air Quality AQ Index Pollutant
Not available.

Snow Depth

Station Depth Elevation

Earthquake Activity

City Distance Mag. Time & Date
Minimum magnitude displayed is 2.5.

Coastal Water Temperatures

Place Temperature

Nearby Weather Stations